URO602T EGLL-EDDH
Flight info
| Callsign | URO602T |
|---|---|
| Flight time | 1h 9m |
| Altitude | 37000 |
| Route | BPK Q295 SOMVA DCT MAVAS DCT GASTU DCT OSTOR/N0406F230 T904 RIBSO RIBSO3S |
| Aircraft | A346/H-SDE2E3FGHIJ3J4J5M1RWXY/LB1D1 |
Departure
| Time | 2026-05-06 15:23 |
|---|---|
| Airport | London Heathrow Airport (EGLL) |
Arrival
| Time | 2026-05-06 16:33 |
|---|---|
| Airport | Hamburg Helmut Schmidt Airport (EDDH) |
| Time | Latitude | Longitude | Altitude | Speed | Heading |
|---|---|---|---|---|---|
| 2026-05-06 15:02 | 51.46232 | -0.46069 | 100 ft | 0 kts | 179° |
| 2026-05-06 15:11 | 51.46241 | -0.46069 | 100 ft | 3 kts | 179° |
| 2026-05-06 15:11 | 51.46261 | -0.46069 | 102 ft | 3 kts | 180° |
| 2026-05-06 15:11 | 51.46281 | -0.46069 | 105 ft | 2 kts | 180° |
| 2026-05-06 15:11 | 51.46296 | -0.46069 | 103 ft | 3 kts | 187° |
| 2026-05-06 15:12 | 51.46311 | -0.46062 | 100 ft | 3 kts | 212° |
| 2026-05-06 15:12 | 51.46320 | -0.46050 | 100 ft | 3 kts | 243° |
| 2026-05-06 15:12 | 51.46324 | -0.46027 | 102 ft | 3 kts | 267° |
| 2026-05-06 15:12 | 51.46324 | -0.45995 | 101 ft | 3 kts | 271° |
| 2026-05-06 15:13 | 51.46324 | -0.45973 | 103 ft | 1 kts | 269° |
| 2026-05-06 15:15 | 51.46324 | -0.45982 | 102 ft | 2 kts | 269° |
| 2026-05-06 15:15 | 51.46324 | -0.46018 | 101 ft | 5 kts | 269° |
| 2026-05-06 15:15 | 51.46323 | -0.46087 | 100 ft | 8 kts | 269° |
| 2026-05-06 15:15 | 51.46322 | -0.46199 | 99 ft | 12 kts | 269° |
| 2026-05-06 15:16 | 51.46321 | -0.46376 | 97 ft | 18 kts | 269° |
| 2026-05-06 15:16 | 51.46320 | -0.46599 | 98 ft | 20 kts | 270° |
| 2026-05-06 15:16 | 51.46323 | -0.46847 | 97 ft | 24 kts | 270° |
| 2026-05-06 15:16 | 51.46322 | -0.47100 | 99 ft | 16 kts | 269° |
| 2026-05-06 15:17 | 51.46322 | -0.47205 | 99 ft | 10 kts | 269° |
| 2026-05-06 15:17 | 51.46321 | -0.47260 | 99 ft | 0 kts | 270° |
| 2026-05-06 15:17 | 51.46321 | -0.47271 | 99 ft | 3 kts | 270° |
| 2026-05-06 15:17 | 51.46324 | -0.47327 | 99 ft | 7 kts | 278° |
| 2026-05-06 15:18 | 51.46335 | -0.47429 | 102 ft | 11 kts | 279° |
| 2026-05-06 15:18 | 51.46342 | -0.47573 | 100 ft | 14 kts | 266° |
| 2026-05-06 15:18 | 51.46300 | -0.47739 | 101 ft | 18 kts | 241° |
| 2026-05-06 15:18 | 51.46259 | -0.47873 | 102 ft | 12 kts | 255° |
| 2026-05-06 15:19 | 51.46249 | -0.48024 | 99 ft | 16 kts | 268° |
| 2026-05-06 15:19 | 51.46248 | -0.48234 | 95 ft | 21 kts | 272° |
| 2026-05-06 15:19 | 51.46250 | -0.48479 | 96 ft | 14 kts | 270° |
| 2026-05-06 15:19 | 51.46263 | -0.48612 | 99 ft | 3 kts | 292° |
| 2026-05-06 15:20 | 51.46268 | -0.48629 | 99 ft | 3 kts | 296° |
| 2026-05-06 15:20 | 51.46281 | -0.48664 | 99 ft | 0 kts | 307° |
| 2026-05-06 15:21 | 51.46287 | -0.48675 | 99 ft | 5 kts | 309° |
| 2026-05-06 15:21 | 51.46348 | -0.48738 | 101 ft | 16 kts | 344° |
| 2026-05-06 15:21 | 51.46453 | -0.48724 | 104 ft | 16 kts | 42° |
| 2026-05-06 15:21 | 51.46476 | -0.48597 | 101 ft | 0 kts | 89° |
| 2026-05-06 15:22 | 51.46480 | -0.48372 | 103 ft | 57 kts | 88° |
| 2026-05-06 15:23 | 51.46487 | -0.47281 | 101 ft | 136 kts | 90° |
| 2026-05-06 15:23 | 51.46480 | -0.45769 | 197 ft | 190 kts | 85° |
| 2026-05-06 15:23 | 51.46485 | -0.43560 | 1108 ft | 202 kts | 86° |
| 2026-05-06 15:23 | 51.46634 | -0.41289 | 2452 ft | 194 kts | 69° |
| 2026-05-06 15:24 | 51.47331 | -0.39403 | 3323 ft | 199 kts | 49° |
| 2026-05-06 15:24 | 51.48273 | -0.37630 | 3981 ft | 216 kts | 46° |
| 2026-05-06 15:24 | 51.49325 | -0.35719 | 4618 ft | 238 kts | 47° |
| 2026-05-06 15:24 | 51.50457 | -0.33616 | 5372 ft | 254 kts | 47° |
| 2026-05-06 15:25 | 51.51629 | -0.31391 | 6152 ft | 266 kts | 48° |
| 2026-05-06 15:25 | 51.52675 | -0.28883 | 7244 ft | 270 kts | 64° |
| 2026-05-06 15:25 | 51.53317 | -0.26005 | 8277 ft | 275 kts | 70° |
| 2026-05-06 15:25 | 51.53883 | -0.23021 | 9204 ft | 283 kts | 70° |
| 2026-05-06 15:26 | 51.54529 | -0.19997 | 10108 ft | 289 kts | 63° |
| 2026-05-06 15:26 | 51.55676 | -0.17278 | 10846 ft | 297 kts | 45° |
| 2026-05-06 15:26 | 51.57170 | -0.14812 | 11486 ft | 314 kts | 42° |
| 2026-05-06 15:26 | 51.58798 | -0.12309 | 12029 ft | 332 kts | 41° |
| 2026-05-06 15:27 | 51.60536 | -0.09683 | 12572 ft | 351 kts | 41° |
| 2026-05-06 15:27 | 51.62381 | -0.06900 | 13066 ft | 370 kts | 41° |
| 2026-05-06 15:27 | 51.64283 | -0.04049 | 13694 ft | 384 kts | 40° |
| 2026-05-06 15:27 | 51.66274 | -0.01056 | 14427 ft | 389 kts | 41° |
| 2026-05-06 15:28 | 51.68277 | 0.01938 | 14833 ft | 393 kts | 40° |
| 2026-05-06 15:28 | 51.70290 | 0.04958 | 14991 ft | 395 kts | 41° |
| 2026-05-06 15:28 | 51.72310 | 0.07977 | 14990 ft | 394 kts | 41° |
| 2026-05-06 15:28 | 51.74336 | 0.11018 | 14992 ft | 396 kts | 40° |
| 2026-05-06 15:29 | 51.76398 | 0.14102 | 15269 ft | 406 kts | 41° |
| 2026-05-06 15:29 | 51.78472 | 0.17216 | 16122 ft | 405 kts | 41° |
| 2026-05-06 15:29 | 51.80561 | 0.20347 | 16710 ft | 406 kts | 41° |
| 2026-05-06 15:29 | 51.82646 | 0.23481 | 16992 ft | 408 kts | 41° |
| 2026-05-06 15:30 | 51.84718 | 0.26595 | 16988 ft | 408 kts | 40° |
| 2026-05-06 15:30 | 51.86796 | 0.29735 | 16998 ft | 408 kts | 41° |
| 2026-05-06 15:30 | 51.88853 | 0.32893 | 16993 ft | 408 kts | 44° |
| 2026-05-06 15:30 | 51.90399 | 0.36727 | 16974 ft | 411 kts | 66° |
| 2026-05-06 15:31 | 51.91268 | 0.41155 | 17307 ft | 421 kts | 73° |
| 2026-05-06 15:31 | 51.92024 | 0.45835 | 18203 ft | 424 kts | 74° |
| 2026-05-06 15:31 | 51.92788 | 0.50466 | 19038 ft | 425 kts | 74° |
| 2026-05-06 15:32 | 51.94426 | 0.59822 | 20435 ft | 435 kts | 73° |
| 2026-05-06 15:32 | 51.95296 | 0.64600 | 21173 ft | 439 kts | 73° |
| 2026-05-06 15:32 | 51.96185 | 0.69428 | 21863 ft | 444 kts | 73° |
| 2026-05-06 15:32 | 51.97084 | 0.74285 | 22559 ft | 449 kts | 73° |
| 2026-05-06 15:33 | 51.97989 | 0.79172 | 22930 ft | 453 kts | 73° |
| 2026-05-06 15:33 | 51.98897 | 0.84073 | 22966 ft | 453 kts | 73° |
| 2026-05-06 15:33 | 51.99809 | 0.89002 | 22972 ft | 453 kts | 73° |
| 2026-05-06 15:33 | 52.00727 | 0.93977 | 22970 ft | 452 kts | 73° |
| 2026-05-06 15:34 | 52.01631 | 0.98883 | 22993 ft | 457 kts | 73° |
| 2026-05-06 15:34 | 52.02547 | 1.03867 | 23542 ft | 461 kts | 73° |
| 2026-05-06 15:34 | 52.03468 | 1.08891 | 24344 ft | 460 kts | 73° |
| 2026-05-06 15:34 | 52.04383 | 1.13892 | 25011 ft | 462 kts | 73° |
| 2026-05-06 15:35 | 52.05290 | 1.18862 | 25532 ft | 467 kts | 73° |
| 2026-05-06 15:35 | 52.06234 | 1.24055 | 26092 ft | 472 kts | 73° |
| 2026-05-06 15:35 | 52.07167 | 1.29205 | 26658 ft | 475 kts | 73° |
| 2026-05-06 15:35 | 52.08103 | 1.34381 | 27251 ft | 478 kts | 73° |
| 2026-05-06 15:36 | 52.09041 | 1.39588 | 27815 ft | 482 kts | 73° |
| 2026-05-06 15:36 | 52.09974 | 1.44776 | 28380 ft | 485 kts | 73° |
| 2026-05-06 15:36 | 52.10933 | 1.50124 | 29043 ft | 486 kts | 73° |
| 2026-05-06 15:36 | 52.11874 | 1.55381 | 29907 ft | 482 kts | 74° |
| 2026-05-06 15:37 | 52.12814 | 1.60661 | 30667 ft | 479 kts | 74° |
| 2026-05-06 15:37 | 52.13736 | 1.65861 | 31362 ft | 477 kts | 74° |
| 2026-05-06 15:37 | 52.14655 | 1.71062 | 32033 ft | 476 kts | 74° |
| 2026-05-06 15:37 | 52.15568 | 1.76234 | 32688 ft | 474 kts | 73° |
| 2026-05-06 15:38 | 52.16174 | 1.79676 | 33144 ft | 473 kts | 73° |
| 2026-05-06 15:38 | 52.17076 | 1.84810 | 33790 ft | 472 kts | 73° |
| 2026-05-06 15:38 | 52.18002 | 1.90096 | 34380 ft | 470 kts | 73° |
| 2026-05-06 15:38 | 52.18900 | 1.95225 | 34868 ft | 470 kts | 74° |
| 2026-05-06 15:39 | 52.19810 | 2.00438 | 35309 ft | 472 kts | 74° |
| 2026-05-06 15:39 | 52.20708 | 2.05602 | 35670 ft | 474 kts | 74° |
| 2026-05-06 15:39 | 52.21613 | 2.10824 | 36013 ft | 477 kts | 74° |
| 2026-05-06 15:39 | 52.22518 | 2.16063 | 36340 ft | 480 kts | 74° |
| 2026-05-06 15:40 | 52.23428 | 2.21348 | 36665 ft | 482 kts | 74° |
| 2026-05-06 15:40 | 52.24334 | 2.26630 | 36932 ft | 485 kts | 74° |
| 2026-05-06 15:40 | 52.26143 | 2.37222 | 36976 ft | 487 kts | 75° |
| 2026-05-06 15:41 | 52.27960 | 2.47930 | 36971 ft | 488 kts | 75° |
| 2026-05-06 15:41 | 52.29774 | 2.58691 | 36966 ft | 489 kts | 75° |
| 2026-05-06 15:42 | 52.31603 | 2.69431 | 36966 ft | 489 kts | 74° |
| 2026-05-06 15:42 | 52.33499 | 2.80102 | 36962 ft | 489 kts | 74° |
| 2026-05-06 15:43 | 52.35391 | 2.90836 | 36967 ft | 489 kts | 74° |
| 2026-05-06 15:43 | 52.37269 | 3.01610 | 36951 ft | 489 kts | 75° |
| 2026-05-06 15:44 | 52.39170 | 3.12377 | 36958 ft | 490 kts | 72° |
| 2026-05-06 15:44 | 52.41596 | 3.22829 | 36953 ft | 490 kts | 66° |
| 2026-05-06 15:45 | 52.44446 | 3.33002 | 36955 ft | 490 kts | 65° |
| 2026-05-06 15:45 | 52.47323 | 3.43168 | 36946 ft | 490 kts | 65° |
| 2026-05-06 15:46 | 52.53360 | 3.64758 | 36945 ft | 492 kts | 66° |
| 2026-05-06 15:46 | 52.66895 | 4.14049 | 36943 ft | 491 kts | 66° |
| 2026-05-06 15:47 | 52.81637 | 4.68964 | 36952 ft | 492 kts | 67° |
| 2026-05-06 15:47 | 52.95724 | 5.22692 | 36946 ft | 493 kts | 67° |
| 2026-05-06 15:48 | 52.99447 | 5.37115 | 36935 ft | 493 kts | 68° |
| 2026-05-06 15:48 | 53.02145 | 5.47619 | 36935 ft | 493 kts | 68° |
| 2026-05-06 15:49 | 53.04834 | 5.58135 | 36939 ft | 493 kts | 68° |
| 2026-05-06 15:49 | 53.07524 | 5.68705 | 36949 ft | 492 kts | 68° |
| 2026-05-06 15:50 | 53.10171 | 5.79159 | 36950 ft | 492 kts | 68° |
| 2026-05-06 15:50 | 53.12826 | 5.89700 | 36947 ft | 494 kts | 68° |
| 2026-05-06 15:51 | 53.15480 | 6.00276 | 36950 ft | 494 kts | 68° |
| 2026-05-06 15:51 | 53.18151 | 6.10975 | 36947 ft | 494 kts | 68° |
| 2026-05-06 15:52 | 53.20755 | 6.21457 | 36938 ft | 493 kts | 68° |
| 2026-05-06 15:52 | 53.23374 | 6.32050 | 36937 ft | 493 kts | 68° |
| 2026-05-06 15:53 | 53.25980 | 6.42646 | 36931 ft | 493 kts | 69° |
| 2026-05-06 15:53 | 53.28564 | 6.53197 | 36939 ft | 493 kts | 69° |
| 2026-05-06 15:54 | 53.31173 | 6.63904 | 36928 ft | 493 kts | 69° |
| 2026-05-06 15:54 | 53.33753 | 6.74542 | 36925 ft | 492 kts | 69° |
| 2026-05-06 15:55 | 53.36321 | 6.85186 | 36927 ft | 492 kts | 69° |
| 2026-05-06 15:55 | 53.38881 | 6.95849 | 36927 ft | 492 kts | 69° |
| 2026-05-06 15:56 | 53.41438 | 7.06552 | 36925 ft | 492 kts | 69° |
| 2026-05-06 15:56 | 53.43969 | 7.17195 | 36928 ft | 492 kts | 69° |
| 2026-05-06 15:57 | 53.46525 | 7.28002 | 36920 ft | 493 kts | 69° |
| 2026-05-06 15:57 | 53.49044 | 7.38704 | 36924 ft | 494 kts | 69° |
| 2026-05-06 15:58 | 53.51575 | 7.49510 | 36923 ft | 494 kts | 69° |
| 2026-05-06 15:58 | 53.54096 | 7.60331 | 36926 ft | 494 kts | 69° |
| 2026-05-06 15:59 | 53.56593 | 7.71100 | 36718 ft | 490 kts | 69° |
| 2026-05-06 15:59 | 53.57838 | 7.76494 | 35886 ft | 495 kts | 70° |
| 2026-05-06 15:59 | 53.59095 | 7.81961 | 34968 ft | 501 kts | 70° |
| 2026-05-06 16:00 | 53.60353 | 7.87442 | 34301 ft | 501 kts | 70° |
| 2026-05-06 16:00 | 53.61606 | 7.92919 | 33694 ft | 498 kts | 70° |
| 2026-05-06 16:00 | 53.62849 | 7.98361 | 33006 ft | 496 kts | 70° |
| 2026-05-06 16:00 | 53.63994 | 8.03836 | 32286 ft | 495 kts | 72° |
| 2026-05-06 16:01 | 53.65089 | 8.09459 | 31544 ft | 494 kts | 73° |
| 2026-05-06 16:01 | 53.66141 | 8.14969 | 30799 ft | 493 kts | 73° |
| 2026-05-06 16:01 | 53.67175 | 8.20425 | 30074 ft | 493 kts | 73° |
| 2026-05-06 16:01 | 53.68222 | 8.25956 | 29204 ft | 492 kts | 73° |
| 2026-05-06 16:02 | 53.69265 | 8.31483 | 28301 ft | 493 kts | 73° |
| 2026-05-06 16:02 | 53.70303 | 8.36993 | 27575 ft | 490 kts | 73° |
| 2026-05-06 16:02 | 53.71329 | 8.42437 | 27097 ft | 482 kts | 73° |
| 2026-05-06 16:02 | 53.72350 | 8.47854 | 26058 ft | 475 kts | 73° |
| 2026-05-06 16:03 | 53.73340 | 8.53143 | 24869 ft | 468 kts | 73° |
| 2026-05-06 16:03 | 53.74311 | 8.58333 | 23796 ft | 458 kts | 73° |
| 2026-05-06 16:03 | 53.75262 | 8.63441 | 22540 ft | 452 kts | 73° |
| 2026-05-06 16:03 | 53.76198 | 8.68465 | 21312 ft | 444 kts | 73° |
| 2026-05-06 16:04 | 53.77115 | 8.73414 | 20156 ft | 436 kts | 73° |
| 2026-05-06 16:04 | 53.78012 | 8.78260 | 19075 ft | 428 kts | 74° |
| 2026-05-06 16:04 | 53.78893 | 8.83050 | 17943 ft | 420 kts | 73° |
| 2026-05-06 16:04 | 53.79751 | 8.87729 | 16791 ft | 412 kts | 73° |
| 2026-05-06 16:05 | 53.80605 | 8.92404 | 16053 ft | 408 kts | 74° |
| 2026-05-06 16:05 | 53.81354 | 8.96479 | 15540 ft | 402 kts | 74° |
| 2026-05-06 16:05 | 53.82170 | 9.01001 | 14922 ft | 397 kts | 76° |
| 2026-05-06 16:05 | 53.82660 | 9.05615 | 14324 ft | 391 kts | 86° |
| 2026-05-06 16:06 | 53.82696 | 9.10181 | 13750 ft | 385 kts | 95° |
| 2026-05-06 16:06 | 53.82456 | 9.14733 | 13113 ft | 379 kts | 96° |
| 2026-05-06 16:06 | 53.82173 | 9.19228 | 12490 ft | 377 kts | 96° |
| 2026-05-06 16:06 | 53.81896 | 9.23675 | 11935 ft | 374 kts | 96° |
| 2026-05-06 16:07 | 53.81632 | 9.28033 | 11461 ft | 370 kts | 95° |
| 2026-05-06 16:07 | 53.81217 | 9.32309 | 11021 ft | 366 kts | 104° |
| 2026-05-06 16:07 | 53.80299 | 9.36319 | 10735 ft | 367 kts | 117° |
| 2026-05-06 16:07 | 53.78931 | 9.40076 | 10763 ft | 371 kts | 123° |
| 2026-05-06 16:08 | 53.77153 | 9.43246 | 10750 ft | 371 kts | 145° |
| 2026-05-06 16:08 | 53.74803 | 9.44976 | 10765 ft | 366 kts | 166° |
| 2026-05-06 16:08 | 53.72270 | 9.45229 | 10416 ft | 365 kts | 185° |
| 2026-05-06 16:08 | 53.69800 | 9.44367 | 10326 ft | 350 kts | 191° |
| 2026-05-06 16:09 | 53.67486 | 9.43494 | 10139 ft | 329 kts | 191° |
| 2026-05-06 16:09 | 53.65352 | 9.42696 | 10072 ft | 301 kts | 191° |
| 2026-05-06 16:09 | 53.63386 | 9.41964 | 10015 ft | 277 kts | 191° |
| 2026-05-06 16:09 | 53.61542 | 9.41274 | 10008 ft | 259 kts | 189° |
| 2026-05-06 16:10 | 53.59794 | 9.40636 | 9862 ft | 252 kts | 189° |
| 2026-05-06 16:10 | 53.58081 | 9.40013 | 9306 ft | 252 kts | 189° |
| 2026-05-06 16:10 | 53.56366 | 9.39400 | 8750 ft | 252 kts | 189° |
| 2026-05-06 16:10 | 53.54660 | 9.38778 | 8303 ft | 250 kts | 189° |
| 2026-05-06 16:11 | 53.52951 | 9.38165 | 7956 ft | 252 kts | 190° |
| 2026-05-06 16:11 | 53.51211 | 9.37531 | 7568 ft | 255 kts | 189° |
| 2026-05-06 16:11 | 53.49467 | 9.36903 | 7183 ft | 258 kts | 190° |
| 2026-05-06 16:11 | 53.47700 | 9.36262 | 6817 ft | 260 kts | 190° |
| 2026-05-06 16:12 | 53.45923 | 9.35610 | 6446 ft | 263 kts | 190° |
| 2026-05-06 16:12 | 53.44130 | 9.34960 | 6060 ft | 264 kts | 190° |
| 2026-05-06 16:12 | 53.42316 | 9.34487 | 5700 ft | 262 kts | 175° |
| 2026-05-06 16:12 | 53.40612 | 9.35201 | 5370 ft | 255 kts | 147° |
| 2026-05-06 16:13 | 53.39212 | 9.36959 | 5049 ft | 250 kts | 136° |
| 2026-05-06 16:13 | 53.37879 | 9.38887 | 4726 ft | 250 kts | 134° |
| 2026-05-06 16:13 | 53.36846 | 9.41150 | 4351 ft | 244 kts | 110° |
| 2026-05-06 16:13 | 53.36562 | 9.43920 | 4035 ft | 238 kts | 84° |
| 2026-05-06 16:14 | 53.37006 | 9.46496 | 3987 ft | 223 kts | 61° |
| 2026-05-06 16:14 | 53.37882 | 9.48540 | 3982 ft | 209 kts | 48° |
| 2026-05-06 16:14 | 53.38849 | 9.50235 | 4013 ft | 192 kts | 47° |
| 2026-05-06 16:14 | 53.39734 | 9.51783 | 4008 ft | 177 kts | 47° |
| 2026-05-06 16:15 | 53.40564 | 9.53289 | 3980 ft | 173 kts | 49° |
| 2026-05-06 16:15 | 53.41369 | 9.54798 | 3984 ft | 174 kts | 50° |
| 2026-05-06 16:15 | 53.42166 | 9.56333 | 3983 ft | 174 kts | 50° |
| 2026-05-06 16:15 | 53.42951 | 9.57875 | 3988 ft | 173 kts | 51° |
| 2026-05-06 16:16 | 53.43728 | 9.59428 | 4007 ft | 174 kts | 51° |
| 2026-05-06 16:16 | 53.44499 | 9.60991 | 4009 ft | 174 kts | 51° |
| 2026-05-06 16:16 | 53.45268 | 9.62561 | 3989 ft | 174 kts | 51° |
| 2026-05-06 16:16 | 53.46039 | 9.64145 | 4013 ft | 175 kts | 51° |
| 2026-05-06 16:17 | 53.46810 | 9.65732 | 3997 ft | 174 kts | 51° |
| 2026-05-06 16:17 | 53.47576 | 9.67313 | 3995 ft | 174 kts | 51° |
| 2026-05-06 16:17 | 53.48342 | 9.68891 | 3995 ft | 174 kts | 51° |
| 2026-05-06 16:17 | 53.49143 | 9.70538 | 4025 ft | 190 kts | 51° |
| 2026-05-06 16:18 | 53.50003 | 9.72303 | 3837 ft | 194 kts | 51° |
| 2026-05-06 16:18 | 53.50860 | 9.74059 | 3571 ft | 193 kts | 51° |
| 2026-05-06 16:18 | 53.51724 | 9.75825 | 3310 ft | 191 kts | 51° |
| 2026-05-06 16:18 | 53.52564 | 9.77539 | 3048 ft | 188 kts | 51° |
| 2026-05-06 16:19 | 53.53397 | 9.79239 | 2788 ft | 181 kts | 51° |
| 2026-05-06 16:19 | 53.54193 | 9.80859 | 2527 ft | 171 kts | 51° |
| 2026-05-06 16:19 | 53.54920 | 9.82338 | 2302 ft | 162 kts | 51° |
| 2026-05-06 16:19 | 53.55651 | 9.83828 | 2080 ft | 153 kts | 51° |
| 2026-05-06 16:20 | 53.56307 | 9.85164 | 1861 ft | 141 kts | 50° |
| 2026-05-06 16:20 | 53.56944 | 9.86458 | 1672 ft | 138 kts | 50° |
| 2026-05-06 16:20 | 53.57561 | 9.87712 | 1487 ft | 135 kts | 50° |
| 2026-05-06 16:20 | 53.58137 | 9.88884 | 1272 ft | 128 kts | 50° |
| 2026-05-06 16:21 | 53.58752 | 9.90130 | 1284 ft | 149 kts | 50° |
| 2026-05-06 16:21 | 53.59442 | 9.91531 | 1971 ft | 152 kts | 51° |
| 2026-05-06 16:21 | 53.60120 | 9.92908 | 2944 ft | 147 kts | 51° |
| 2026-05-06 16:21 | 53.60803 | 9.94295 | 3611 ft | 162 kts | 51° |
| 2026-05-06 16:22 | 53.61588 | 9.95890 | 3966 ft | 186 kts | 51° |
| 2026-05-06 16:22 | 53.62429 | 9.97602 | 4000 ft | 191 kts | 54° |
| 2026-05-06 16:22 | 53.62900 | 9.99617 | 3975 ft | 192 kts | 86° |
| 2026-05-06 16:22 | 53.62474 | 10.01855 | 4007 ft | 217 kts | 121° |
| 2026-05-06 16:23 | 53.61244 | 10.03437 | 3960 ft | 233 kts | 156° |
| 2026-05-06 16:23 | 53.59623 | 10.03937 | 3985 ft | 239 kts | 171° |
| 2026-05-06 16:23 | 53.57954 | 10.04091 | 3999 ft | 239 kts | 173° |
| 2026-05-06 16:23 | 53.56281 | 10.04192 | 4000 ft | 239 kts | 174° |
| 2026-05-06 16:24 | 53.54625 | 10.04307 | 3998 ft | 238 kts | 174° |
| 2026-05-06 16:24 | 53.52975 | 10.04024 | 3984 ft | 243 kts | 199° |
| 2026-05-06 16:24 | 53.51998 | 10.03092 | 3996 ft | 246 kts | 216° |
| 2026-05-06 16:24 | 53.50707 | 10.01193 | 3994 ft | 246 kts | 222° |
| 2026-05-06 16:25 | 53.49080 | 9.98510 | 3998 ft | 247 kts | 224° |
| 2026-05-06 16:25 | 53.47863 | 9.96473 | 3999 ft | 247 kts | 224° |
| 2026-05-06 16:25 | 53.47058 | 9.95121 | 4000 ft | 247 kts | 224° |
| 2026-05-06 16:25 | 53.45843 | 9.93088 | 4012 ft | 246 kts | 224° |
| 2026-05-06 16:26 | 53.44629 | 9.91057 | 3996 ft | 246 kts | 224° |
| 2026-05-06 16:26 | 53.43627 | 9.88749 | 3788 ft | 243 kts | 251° |
| 2026-05-06 16:26 | 53.43463 | 9.86014 | 3636 ft | 232 kts | 282° |
| 2026-05-06 16:26 | 53.43851 | 9.83447 | 3508 ft | 223 kts | 291° |
| 2026-05-06 16:27 | 53.44336 | 9.81004 | 3352 ft | 216 kts | 294° |
| 2026-05-06 16:27 | 53.44956 | 9.78756 | 3236 ft | 208 kts | 304° |
| 2026-05-06 16:27 | 53.45911 | 9.77093 | 3066 ft | 192 kts | 342° |
| 2026-05-06 16:27 | 53.47144 | 9.76824 | 3034 ft | 175 kts | 14° |
| 2026-05-06 16:28 | 53.48322 | 9.77370 | 3063 ft | 181 kts | 22° |
| 2026-05-06 16:28 | 53.49536 | 9.78106 | 3040 ft | 187 kts | 23° |
| 2026-05-06 16:28 | 53.50586 | 9.78765 | 3011 ft | 183 kts | 24° |
| 2026-05-06 16:28 | 53.51774 | 9.79509 | 3000 ft | 182 kts | 24° |
| 2026-05-06 16:29 | 53.52957 | 9.80267 | 2999 ft | 182 kts | 24° |
| 2026-05-06 16:29 | 53.54058 | 9.81195 | 2810 ft | 175 kts | 38° |
| 2026-05-06 16:29 | 53.54929 | 9.82532 | 2530 ft | 165 kts | 47° |
| 2026-05-06 16:29 | 53.55689 | 9.83922 | 2252 ft | 155 kts | 49° |
| 2026-05-06 16:30 | 53.56356 | 9.85243 | 2021 ft | 144 kts | 50° |
| 2026-05-06 16:30 | 53.56782 | 9.86108 | 1866 ft | 137 kts | 51° |
| 2026-05-06 16:30 | 53.57548 | 9.87673 | 1552 ft | 124 kts | 50° |
| 2026-05-06 16:30 | 53.58094 | 9.88790 | 1304 ft | 126 kts | 50° |
| 2026-05-06 16:31 | 53.58667 | 9.89952 | 1132 ft | 130 kts | 51° |
| 2026-05-06 16:31 | 53.59248 | 9.91136 | 944 ft | 132 kts | 50° |
| 2026-05-06 16:31 | 53.59838 | 9.92333 | 745 ft | 132 kts | 51° |
| 2026-05-06 16:31 | 53.60449 | 9.93576 | 570 ft | 139 kts | 50° |
| 2026-05-06 16:32 | 53.61082 | 9.94856 | 355 ft | 142 kts | 51° |
| 2026-05-06 16:32 | 53.61716 | 9.96169 | 192 ft | 142 kts | 50° |
| 2026-05-06 16:32 | 53.62312 | 9.97360 | 54 ft | 138 kts | 50° |
| 2026-05-06 16:32 | 53.62769 | 9.98286 | 55 ft | 87 kts | 50° |
| 2026-05-06 16:33 | 53.63126 | 9.99005 | 54 ft | 66 kts | 50° |
| 2026-05-06 16:33 | 53.63285 | 9.99426 | 53 ft | 25 kts | 80° |
| 2026-05-06 16:33 | 53.63277 | 9.99637 | 59 ft | 9 kts | 100° |
| 2026-05-06 16:34 | 53.63278 | 9.99634 | 59 ft | 1 kts | 100° |
| 2026-05-06 16:34 | 53.63276 | 9.99644 | 59 ft | 3 kts | 100° |
| 2026-05-06 16:34 | 53.63276 | 9.99711 | 55 ft | 8 kts | 79° |
| 2026-05-06 16:34 | 53.63312 | 9.99829 | 54 ft | 14 kts | 52° |
| 2026-05-06 16:35 | 53.63376 | 9.99960 | 54 ft | 0 kts | 50° |
| 2026-05-06 16:40 | 53.63404 | 10.00015 | 54 ft | 11 kts | 50° |
| 2026-05-06 16:40 | 53.63391 | 10.00174 | 53 ft | 17 kts | 154° |
| 2026-05-06 16:40 | 53.63285 | 10.00206 | 55 ft | 14 kts | 177° |
| 2026-05-06 16:40 | 53.63158 | 10.00219 | 60 ft | 19 kts | 176° |
| 2026-05-06 16:41 | 53.63088 | 10.00217 | 54 ft | 0 kts | 191° |